sensor_id;sensor_type;location;lat;lon;timestamp;P1;durP1;ratioP1;P2;durP2;ratioP2
62990;SDS011;49084;48.204;16.202;2022-12-28T00:00:03;12.85;;;6.30;;
62990;SDS011;49084;48.204;16.202;2022-12-28T00:02:30;17.98;;;7.03;;
62990;SDS011;49084;48.204;16.202;2022-12-28T00:04:56;14.90;;;7.00;;
62990;SDS011;49084;48.204;16.202;2022-12-28T00:07:21;15.57;;;6.97;;
62990;SDS011;49084;48.204;16.202;2022-12-28T00:09:47;14.00;;;7.50;;
62990;SDS011;49084;48.204;16.202;2022-12-28T00:12:13;13.80;;;7.13;;
62990;SDS011;49084;48.204;16.202;2022-12-28T00:14:38;16.02;;;7.22;;
62990;SDS011;49084;48.204;16.202;2022-12-28T00:17:04;13.43;;;7.28;;
62990;SDS011;49084;48.204;16.202;2022-12-28T00:19:30;13.82;;;6.57;;
62990;SDS011;49084;48.204;16.202;2022-12-28T00:21:55;13.68;;;7.35;;
62990;SDS011;49084;48.204;16.202;2022-12-28T00:24:21;16.40;;;7.03;;
62990;SDS011;49084;48.204;16.202;2022-12-28T00:26:48;17.65;;;7.03;;
62990;SDS011;49084;48.204;16.202;2022-12-28T00:29:14;16.23;;;6.47;;
62990;SDS011;49084;48.204;16.202;2022-12-28T00:31:40;12.65;;;6.78;;
62990;SDS011;49084;48.204;16.202;2022-12-28T00:34:06;17.92;;;6.57;;
62990;SDS011;49084;48.204;16.202;2022-12-28T00:36:32;13.52;;;6.32;;
62990;SDS011;49084;48.204;16.202;2022-12-28T00:38:57;14.15;;;6.68;;
62990;SDS011;49084;48.204;16.202;2022-12-28T00:41:23;13.52;;;7.00;;
62990;SDS011;49084;48.204;16.202;2022-12-28T00:43:49;12.68;;;6.18;;
62990;SDS011;49084;48.204;16.202;2022-12-28T00:46:15;16.20;;;6.25;;
62990;SDS011;49084;48.204;16.202;2022-12-28T00:48:41;13.40;;;6.35;;
62990;SDS011;49084;48.204;16.202;2022-12-28T00:51:11;12.52;;;6.47;;
62990;SDS011;49084;48.204;16.202;2022-12-28T00:53:39;13.13;;;5.72;;
62990;SDS011;49084;48.204;16.202;2022-12-28T00:56:05;12.32;;;6.25;;
62990;SDS011;49084;48.204;16.202;2022-12-28T00:58:36;13.57;;;6.38;;
62990;SDS011;49084;48.204;16.202;2022-12-28T01:01:02;13.30;;;6.43;;
62990;SDS011;49084;48.204;16.202;2022-12-28T01:03:29;14.85;;;5.95;;
62990;SDS011;49084;48.204;16.202;2022-12-28T01:05:55;17.17;;;6.05;;
62990;SDS011;49084;48.204;16.202;2022-12-28T01:08:21;12.32;;;6.05;;
62990;SDS011;49084;48.204;16.202;2022-12-28T01:10:46;11.30;;;5.80;;
62990;SDS011;49084;48.204;16.202;2022-12-28T01:13:12;10.15;;;5.90;;
62990;SDS011;49084;48.204;16.202;2022-12-28T01:15:38;12.90;;;6.18;;
62990;SDS011;49084;48.204;16.202;2022-12-28T01:18:04;12.15;;;6.47;;
62990;SDS011;49084;48.204;16.202;2022-12-28T01:20:29;13.82;;;6.30;;
62990;SDS011;49084;48.204;16.202;2022-12-28T01:22:55;12.68;;;6.85;;
62990;SDS011;49084;48.204;16.202;2022-12-28T01:25:21;13.82;;;6.93;;
62990;SDS011;49084;48.204;16.202;2022-12-28T01:27:46;13.05;;;6.60;;
62990;SDS011;49084;48.204;16.202;2022-12-28T01:30:12;13.98;;;6.47;;
62990;SDS011;49084;48.204;16.202;2022-12-28T01:32:39;13.40;;;6.88;;
62990;SDS011;49084;48.204;16.202;2022-12-28T01:35:05;10.15;;;6.07;;
62990;SDS011;49084;48.204;16.202;2022-12-28T01:37:31;14.48;;;6.30;;
62990;SDS011;49084;48.204;16.202;2022-12-28T01:39:56;14.60;;;6.25;;
62990;SDS011;49084;48.204;16.202;2022-12-28T01:42:23;15.52;;;5.85;;
62990;SDS011;49084;48.204;16.202;2022-12-28T01:44:49;14.07;;;5.70;;
62990;SDS011;49084;48.204;16.202;2022-12-28T01:47:30;12.13;;;5.70;;
62990;SDS011;49084;48.204;16.202;2022-12-28T01:50:03;10.77;;;5.70;;
62990;SDS011;49084;48.204;16.202;2022-12-28T01:52:35;10.85;;;5.78;;
62990;SDS011;49084;48.204;16.202;2022-12-28T01:55:19;14.38;;;5.72;;
62990;SDS011;49084;48.204;16.202;2022-12-28T02:00:30;11.45;;;5.15;;
62990;SDS011;49084;48.204;16.202;2022-12-28T02:03:00;12.85;;;5.50;;
62990;SDS011;49084;48.204;16.202;2022-12-28T02:05:39;13.73;;;5.90;;
62990;SDS011;49084;48.204;16.202;2022-12-28T02:08:12;15.15;;;6.50;;
62990;SDS011;49084;48.204;16.202;2022-12-28T02:10:46;12.45;;;5.47;;
62990;SDS011;49084;48.204;16.202;2022-12-28T02:13:14;15.23;;;5.82;;
62990;SDS011;49084;48.204;16.202;2022-12-28T02:15:41;11.70;;;5.20;;
62990;SDS011;49084;48.204;16.202;2022-12-28T02:18:08;9.70;;;5.85;;
62990;SDS011;49084;48.204;16.202;2022-12-28T02:31:12;10.88;;;4.95;;
62990;SDS011;49084;48.204;16.202;2022-12-28T02:37:04;12.07;;;5.57;;
62990;SDS011;49084;48.204;16.202;2022-12-28T02:39:41;12.57;;;4.95;;
62990;SDS011;49084;48.204;16.202;2022-12-28T02:42:12;10.45;;;5.28;;
62990;SDS011;49084;48.204;16.202;2022-12-28T02:44:39;8.23;;;4.67;;
62990;SDS011;49084;48.204;16.202;2022-12-28T02:47:23;10.18;;;5.25;;
62990;SDS011;49084;48.204;16.202;2022-12-28T02:50:09;13.02;;;4.57;;
62990;SDS011;49084;48.204;16.202;2022-12-28T02:52:52;14.55;;;5.97;;
62990;SDS011;49084;48.204;16.202;2022-12-28T02:55:45;9.93;;;5.13;;
62990;SDS011;49084;48.204;16.202;2022-12-28T03:09:48;10.73;;;4.88;;
62990;SDS011;49084;48.204;16.202;2022-12-28T03:12:22;8.27;;;4.70;;
62990;SDS011;49084;48.204;16.202;2022-12-28T03:15:39;8.73;;;4.40;;
62990;SDS011;49084;48.204;16.202;2022-12-28T03:18:01;7.70;;;4.18;;
62990;SDS011;49084;48.204;16.202;2022-12-28T03:20:52;8.85;;;4.10;;
62990;SDS011;49084;48.204;16.202;2022-12-28T03:23:39;8.15;;;4.55;;
62990;SDS011;49084;48.204;16.202;2022-12-28T03:26:27;10.65;;;4.40;;
62990;SDS011;49084;48.204;16.202;2022-12-28T03:29:15;11.93;;;4.60;;
62990;SDS011;49084;48.204;16.202;2022-12-28T03:32:01;9.77;;;4.95;;
62990;SDS011;49084;48.204;16.202;2022-12-28T03:34:27;8.57;;;4.20;;
62990;SDS011;49084;48.204;16.202;2022-12-28T03:36:58;8.48;;;4.43;;
62990;SDS011;49084;48.204;16.202;2022-12-28T03:45:20;17.23;;;4.95;;
62990;SDS011;49084;48.204;16.202;2022-12-28T03:47:47;10.27;;;4.43;;
62990;SDS011;49084;48.204;16.202;2022-12-28T03:50:15;9.20;;;4.83;;
62990;SDS011;49084;48.204;16.202;2022-12-28T03:52:42;9.60;;;4.18;;
62990;SDS011;49084;48.204;16.202;2022-12-28T03:55:08;8.35;;;4.20;;
62990;SDS011;49084;48.204;16.202;2022-12-28T03:57:37;6.57;;;3.83;;
62990;SDS011;49084;48.204;16.202;2022-12-28T04:00:03;10.57;;;4.53;;
62990;SDS011;49084;48.204;16.202;2022-12-28T04:02:29;9.50;;;4.45;;
62990;SDS011;49084;48.204;16.202;2022-12-28T04:04:54;8.07;;;3.85;;
62990;SDS011;49084;48.204;16.202;2022-12-28T04:07:20;14.60;;;4.28;;
62990;SDS011;49084;48.204;16.202;2022-12-28T04:09:45;12.73;;;5.18;;
62990;SDS011;49084;48.204;16.202;2022-12-28T04:12:11;7.07;;;4.32;;
62990;SDS011;49084;48.204;16.202;2022-12-28T04:14:38;12.98;;;4.65;;
62990;SDS011;49084;48.204;16.202;2022-12-28T04:17:04;9.15;;;4.13;;
62990;SDS011;49084;48.204;16.202;2022-12-28T04:19:30;8.90;;;4.05;;
62990;SDS011;49084;48.204;16.202;2022-12-28T04:21:56;9.32;;;4.53;;
62990;SDS011;49084;48.204;16.202;2022-12-28T04:24:21;7.10;;;3.80;;
62990;SDS011;49084;48.204;16.202;2022-12-28T04:26:47;8.80;;;5.03;;
62990;SDS011;49084;48.204;16.202;2022-12-28T04:29:13;5.93;;;3.88;;
62990;SDS011;49084;48.204;16.202;2022-12-28T04:31:38;8.75;;;3.67;;
62990;SDS011;49084;48.204;16.202;2022-12-28T04:34:04;7.88;;;3.72;;
62990;SDS011;49084;48.204;16.202;2022-12-28T04:36:30;8.70;;;3.53;;
62990;SDS011;49084;48.204;16.202;2022-12-28T04:38:57;10.25;;;3.92;;
62990;SDS011;49084;48.204;16.202;2022-12-28T04:41:23;7.15;;;3.83;;
62990;SDS011;49084;48.204;16.202;2022-12-28T04:43:49;6.63;;;3.95;;
62990;SDS011;49084;48.204;16.202;2022-12-28T04:46:16;8.85;;;4.28;;
62990;SDS011;49084;48.204;16.202;2022-12-28T04:48:42;9.32;;;3.78;;
62990;SDS011;49084;48.204;16.202;2022-12-28T04:51:09;8.63;;;3.65;;
62990;SDS011;49084;48.204;16.202;2022-12-28T04:53:40;7.57;;;4.35;;
62990;SDS011;49084;48.204;16.202;2022-12-28T04:56:07;11.60;;;4.07;;
62990;SDS011;49084;48.204;16.202;2022-12-28T04:58:34;6.07;;;3.40;;
62990;SDS011;49084;48.204;16.202;2022-12-28T05:01:07;8.15;;;3.75;;
62990;SDS011;49084;48.204;16.202;2022-12-28T05:03:38;10.18;;;4.03;;
62990;SDS011;49084;48.204;16.202;2022-12-28T05:06:08;10.75;;;4.35;;
62990;SDS011;49084;48.204;16.202;2022-12-28T05:08:36;5.45;;;3.70;;
62990;SDS011;49084;48.204;16.202;2022-12-28T05:11:03;7.38;;;3.78;;
62990;SDS011;49084;48.204;16.202;2022-12-28T05:13:32;7.57;;;3.38;;
62990;SDS011;49084;48.204;16.202;2022-12-28T05:16:05;8.75;;;3.75;;
62990;SDS011;49084;48.204;16.202;2022-12-28T05:18:34;8.57;;;3.90;;
62990;SDS011;49084;48.204;16.202;2022-12-28T05:21:11;9.07;;;3.65;;
62990;SDS011;49084;48.204;16.202;2022-12-28T05:23:39;8.88;;;3.80;;
62990;SDS011;49084;48.204;16.202;2022-12-28T05:26:06;6.65;;;3.60;;
62990;SDS011;49084;48.204;16.202;2022-12-28T05:28:34;5.90;;;3.90;;
62990;SDS011;49084;48.204;16.202;2022-12-28T05:31:00;6.72;;;3.63;;
62990;SDS011;49084;48.204;16.202;2022-12-28T05:33:29;6.45;;;3.95;;
62990;SDS011;49084;48.204;16.202;2022-12-28T05:36:00;9.52;;;3.58;;
62990;SDS011;49084;48.204;16.202;2022-12-28T05:38:27;7.10;;;3.33;;
62990;SDS011;49084;48.204;16.202;2022-12-28T05:40:53;7.82;;;3.80;;
62990;SDS011;49084;48.204;16.202;2022-12-28T05:43:18;8.02;;;4.18;;
62990;SDS011;49084;48.204;16.202;2022-12-28T05:45:44;13.15;;;3.97;;
62990;SDS011;49084;48.204;16.202;2022-12-28T05:48:10;7.93;;;3.70;;
62990;SDS011;49084;48.204;16.202;2022-12-28T05:50:35;7.60;;;4.47;;
62990;SDS011;49084;48.204;16.202;2022-12-28T05:53:01;12.93;;;3.88;;
62990;SDS011;49084;48.204;16.202;2022-12-28T05:55:27;7.32;;;3.90;;
62990;SDS011;49084;48.204;16.202;2022-12-28T05:57:55;8.55;;;4.43;;
62990;SDS011;49084;48.204;16.202;2022-12-28T06:00:21;10.98;;;5.68;;
62990;SDS011;49084;48.204;16.202;2022-12-28T06:02:46;12.48;;;6.35;;
62990;SDS011;49084;48.204;16.202;2022-12-28T06:05:12;16.20;;;6.80;;
62990;SDS011;49084;48.204;16.202;2022-12-28T06:07:38;15.45;;;7.53;;
62990;SDS011;49084;48.204;16.202;2022-12-28T06:10:04;19.23;;;8.13;;
62990;SDS011;49084;48.204;16.202;2022-12-28T06:12:30;18.30;;;8.43;;
62990;SDS011;49084;48.204;16.202;2022-12-28T06:14:55;19.08;;;8.38;;
62990;SDS011;49084;48.204;16.202;2022-12-28T06:17:21;16.58;;;8.10;;
62990;SDS011;49084;48.204;16.202;2022-12-28T06:19:47;14.25;;;7.00;;
62990;SDS011;49084;48.204;16.202;2022-12-28T06:22:12;10.38;;;6.15;;
62990;SDS011;49084;48.204;16.202;2022-12-28T06:24:38;11.57;;;5.80;;
62990;SDS011;49084;48.204;16.202;2022-12-28T06:27:04;12.02;;;5.72;;
62990;SDS011;49084;48.204;16.202;2022-12-28T06:29:29;14.65;;;5.72;;
62990;SDS011;49084;48.204;16.202;2022-12-28T06:32:01;12.05;;;5.97;;
62990;SDS011;49084;48.204;16.202;2022-12-28T06:34:27;13.25;;;5.60;;
62990;SDS011;49084;48.204;16.202;2022-12-28T06:36:52;18.55;;;6.82;;
62990;SDS011;49084;48.204;16.202;2022-12-28T06:39:20;11.73;;;6.00;;
62990;SDS011;49084;48.204;16.202;2022-12-28T06:41:46;15.70;;;6.97;;
62990;SDS011;49084;48.204;16.202;2022-12-28T06:44:12;13.82;;;7.50;;
62990;SDS011;49084;48.204;16.202;2022-12-28T06:46:38;17.60;;;7.93;;
62990;SDS011;49084;48.204;16.202;2022-12-28T06:49:04;17.08;;;7.85;;
62990;SDS011;49084;48.204;16.202;2022-12-28T06:51:30;12.30;;;6.63;;
62990;SDS011;49084;48.204;16.202;2022-12-28T06:54:02;13.43;;;6.50;;
62990;SDS011;49084;48.204;16.202;2022-12-28T06:56:29;12.38;;;6.15;;
62990;SDS011;49084;48.204;16.202;2022-12-28T06:58:56;12.57;;;6.18;;
62990;SDS011;49084;48.204;16.202;2022-12-28T07:01:24;15.07;;;5.97;;
62990;SDS011;49084;48.204;16.202;2022-12-28T07:03:52;10.27;;;5.32;;
62990;SDS011;49084;48.204;16.202;2022-12-28T07:06:20;9.02;;;5.18;;
62990;SDS011;49084;48.204;16.202;2022-12-28T07:08:47;10.10;;;5.10;;
62990;SDS011;49084;48.204;16.202;2022-12-28T07:11:20;9.23;;;4.70;;
62990;SDS011;49084;48.204;16.202;2022-12-28T07:13:46;12.73;;;4.95;;
62990;SDS011;49084;48.204;16.202;2022-12-28T07:16:13;11.80;;;5.20;;
62990;SDS011;49084;48.204;16.202;2022-12-28T07:18:49;9.73;;;5.00;;
62990;SDS011;49084;48.204;16.202;2022-12-28T07:21:16;10.90;;;4.38;;
62990;SDS011;49084;48.204;16.202;2022-12-28T07:23:45;13.23;;;5.18;;
62990;SDS011;49084;48.204;16.202;2022-12-28T07:26:12;10.60;;;4.88;;
62990;SDS011;49084;48.204;16.202;2022-12-28T07:28:40;10.15;;;5.20;;
62990;SDS011;49084;48.204;16.202;2022-12-28T07:31:09;14.60;;;6.28;;
62990;SDS011;49084;48.204;16.202;2022-12-28T07:33:36;11.25;;;5.88;;
62990;SDS011;49084;48.204;16.202;2022-12-28T07:36:03;15.07;;;5.82;;
62990;SDS011;49084;48.204;16.202;2022-12-28T07:38:30;14.23;;;5.65;;
62990;SDS011;49084;48.204;16.202;2022-12-28T07:43:30;14.20;;;6.38;;
62990;SDS011;49084;48.204;16.202;2022-12-28T07:46:04;13.80;;;6.50;;
62990;SDS011;49084;48.204;16.202;2022-12-28T07:48:31;14.27;;;5.85;;
62990;SDS011;49084;48.204;16.202;2022-12-28T07:51:04;12.23;;;5.68;;
62990;SDS011;49084;48.204;16.202;2022-12-28T07:53:36;10.60;;;6.07;;
62990;SDS011;49084;48.204;16.202;2022-12-28T07:56:02;8.95;;;5.95;;
62990;SDS011;49084;48.204;16.202;2022-12-28T07:58:29;15.65;;;7.50;;
62990;SDS011;49084;48.204;16.202;2022-12-28T08:01:01;13.52;;;6.55;;
62990;SDS011;49084;48.204;16.202;2022-12-28T08:03:34;20.45;;;7.68;;
62990;SDS011;49084;48.204;16.202;2022-12-28T08:08:34;19.95;;;6.40;;
62990;SDS011;49084;48.204;16.202;2022-12-28T08:11:01;14.30;;;7.22;;
62990;SDS011;49084;48.204;16.202;2022-12-28T08:13:30;13.77;;;6.10;;
62990;SDS011;49084;48.204;16.202;2022-12-28T08:15:57;14.43;;;6.72;;
62990;SDS011;49084;48.204;16.202;2022-12-28T08:18:23;16.77;;;6.30;;
62990;SDS011;49084;48.204;16.202;2022-12-28T08:20:49;11.27;;;7.18;;
62990;SDS011;49084;48.204;16.202;2022-12-28T08:23:14;11.95;;;5.78;;
62990;SDS011;49084;48.204;16.202;2022-12-28T08:25:40;13.52;;;6.20;;
62990;SDS011;49084;48.204;16.202;2022-12-28T08:28:05;12.30;;;6.25;;
62990;SDS011;49084;48.204;16.202;2022-12-28T08:30:31;12.10;;;6.07;;
62990;SDS011;49084;48.204;16.202;2022-12-28T08:32:57;11.45;;;6.32;;
62990;SDS011;49084;48.204;16.202;2022-12-28T08:35:22;13.32;;;6.68;;
62990;SDS011;49084;48.204;16.202;2022-12-28T08:37:48;15.20;;;6.78;;
62990;SDS011;49084;48.204;16.202;2022-12-28T08:40:14;10.65;;;6.22;;
62990;SDS011;49084;48.204;16.202;2022-12-28T08:42:39;12.90;;;6.65;;
62990;SDS011;49084;48.204;16.202;2022-12-28T08:45:05;14.05;;;5.85;;
62990;SDS011;49084;48.204;16.202;2022-12-28T08:47:31;11.80;;;5.70;;
62990;SDS011;49084;48.204;16.202;2022-12-28T08:49:57;9.93;;;5.65;;
62990;SDS011;49084;48.204;16.202;2022-12-28T08:52:22;8.65;;;5.60;;
62990;SDS011;49084;48.204;16.202;2022-12-28T08:54:49;11.65;;;5.80;;
62990;SDS011;49084;48.204;16.202;2022-12-28T08:57:14;8.40;;;5.32;;
62990;SDS011;49084;48.204;16.202;2022-12-28T08:59:40;10.40;;;5.30;;
62990;SDS011;49084;48.204;16.202;2022-12-28T09:02:06;9.48;;;5.13;;
62990;SDS011;49084;48.204;16.202;2022-12-28T09:04:35;7.88;;;4.00;;
62990;SDS011;49084;48.204;16.202;2022-12-28T09:07:00;9.35;;;4.03;;
62990;SDS011;49084;48.204;16.202;2022-12-28T09:09:26;7.88;;;4.68;;
62990;SDS011;49084;48.204;16.202;2022-12-28T09:11:52;5.45;;;3.72;;
62990;SDS011;49084;48.204;16.202;2022-12-28T09:14:17;7.90;;;3.67;;
62990;SDS011;49084;48.204;16.202;2022-12-28T09:16:43;4.88;;;3.20;;
62990;SDS011;49084;48.204;16.202;2022-12-28T09:19:09;9.07;;;3.70;;
62990;SDS011;49084;48.204;16.202;2022-12-28T09:21:37;7.03;;;3.90;;
62990;SDS011;49084;48.204;16.202;2022-12-28T09:24:03;7.50;;;3.47;;
62990;SDS011;49084;48.204;16.202;2022-12-28T09:26:31;5.82;;;3.72;;
62990;SDS011;49084;48.204;16.202;2022-12-28T09:29:00;5.28;;;3.30;;
62990;SDS011;49084;48.204;16.202;2022-12-28T09:31:28;6.80;;;3.78;;
62990;SDS011;49084;48.204;16.202;2022-12-28T09:33:55;5.45;;;3.25;;
62990;SDS011;49084;48.204;16.202;2022-12-28T09:39:07;7.25;;;3.15;;
62990;SDS011;49084;48.204;16.202;2022-12-28T09:46:57;8.65;;;4.15;;
62990;SDS011;49084;48.204;16.202;2022-12-28T09:49:27;4.70;;;2.58;;
62990;SDS011;49084;48.204;16.202;2022-12-28T09:52:33;5.93;;;3.40;;
62990;SDS011;49084;48.204;16.202;2022-12-28T09:55:09;10.13;;;4.03;;
62990;SDS011;49084;48.204;16.202;2022-12-28T09:57:39;8.75;;;3.70;;
62990;SDS011;49084;48.204;16.202;2022-12-28T10:03:17;6.40;;;3.50;;
62990;SDS011;49084;48.204;16.202;2022-12-28T10:05:48;5.82;;;3.63;;
62990;SDS011;49084;48.204;16.202;2022-12-28T10:08:16;5.70;;;3.63;;
62990;SDS011;49084;48.204;16.202;2022-12-28T10:13:15;7.65;;;3.97;;
62990;SDS011;49084;48.204;16.202;2022-12-28T10:15:42;10.93;;;4.15;;
62990;SDS011;49084;48.204;16.202;2022-12-28T10:18:09;8.85;;;3.28;;
62990;SDS011;49084;48.204;16.202;2022-12-28T10:20:37;7.38;;;3.08;;
62990;SDS011;49084;48.204;16.202;2022-12-28T10:23:04;10.57;;;3.90;;
62990;SDS011;49084;48.204;16.202;2022-12-28T10:25:30;10.02;;;3.78;;
62990;SDS011;49084;48.204;16.202;2022-12-28T10:27:57;9.77;;;3.72;;
62990;SDS011;49084;48.204;16.202;2022-12-28T10:30:25;9.63;;;3.22;;
62990;SDS011;49084;48.204;16.202;2022-12-28T10:33:00;8.00;;;3.13;;
62990;SDS011;49084;48.204;16.202;2022-12-28T10:35:33;5.93;;;3.97;;
62990;SDS011;49084;48.204;16.202;2022-12-28T10:38:06;6.60;;;3.63;;
62990;SDS011;49084;48.204;16.202;2022-12-28T10:40:55;6.40;;;4.30;;
62990;SDS011;49084;48.204;16.202;2022-12-28T10:43:46;7.30;;;4.45;;
62990;SDS011;49084;48.204;16.202;2022-12-28T10:46:18;13.63;;;5.18;;
62990;SDS011;49084;48.204;16.202;2022-12-28T10:48:55;10.40;;;4.88;;
62990;SDS011;49084;48.204;16.202;2022-12-28T10:51:24;10.87;;;4.10;;
62990;SDS011;49084;48.204;16.202;2022-12-28T10:53:55;6.10;;;3.15;;
62990;SDS011;49084;48.204;16.202;2022-12-28T10:58:48;5.65;;;2.67;;
62990;SDS011;49084;48.204;16.202;2022-12-28T11:03:45;4.25;;;3.10;;
62990;SDS011;49084;48.204;16.202;2022-12-28T11:06:21;7.45;;;2.97;;
62990;SDS011;49084;48.204;16.202;2022-12-28T11:09:00;7.85;;;3.53;;
62990;SDS011;49084;48.204;16.202;2022-12-28T11:11:28;12.50;;;3.97;;
62990;SDS011;49084;48.204;16.202;2022-12-28T11:13:55;7.80;;;3.58;;
62990;SDS011;49084;48.204;16.202;2022-12-28T11:16:33;6.47;;;3.72;;
62990;SDS011;49084;48.204;16.202;2022-12-28T11:19:03;7.88;;;4.15;;
62990;SDS011;49084;48.204;16.202;2022-12-28T11:21:29;6.80;;;4.13;;
62990;SDS011;49084;48.204;16.202;2022-12-28T11:23:56;10.13;;;4.55;;
62990;SDS011;49084;48.204;16.202;2022-12-28T11:26:22;10.02;;;4.60;;
62990;SDS011;49084;48.204;16.202;2022-12-28T11:28:48;7.28;;;4.38;;
62990;SDS011;49084;48.204;16.202;2022-12-28T11:31:27;8.23;;;4.90;;
62990;SDS011;49084;48.204;16.202;2022-12-28T11:33:57;9.82;;;5.30;;
62990;SDS011;49084;48.204;16.202;2022-12-28T11:36:29;10.63;;;6.03;;
62990;SDS011;49084;48.204;16.202;2022-12-28T11:39:28;9.23;;;5.90;;
62990;SDS011;49084;48.204;16.202;2022-12-28T11:41:55;7.43;;;4.93;;
62990;SDS011;49084;48.204;16.202;2022-12-28T11:47:04;11.50;;;5.07;;
62990;SDS011;49084;48.204;16.202;2022-12-28T11:49:39;11.73;;;4.80;;
62990;SDS011;49084;48.204;16.202;2022-12-28T12:02:59;15.02;;;6.75;;
62990;SDS011;49084;48.204;16.202;2022-12-28T12:10:43;20.15;;;8.30;;
62990;SDS011;49084;48.204;16.202;2022-12-28T12:15:55;13.75;;;7.47;;
62990;SDS011;49084;48.204;16.202;2022-12-28T12:18:25;16.15;;;9.18;;
62990;SDS011;49084;48.204;16.202;2022-12-28T12:21:06;13.30;;;8.15;;
62990;SDS011;49084;48.204;16.202;2022-12-28T12:29:03;15.50;;;8.65;;
62990;SDS011;49084;48.204;16.202;2022-12-28T12:31:43;16.55;;;9.95;;
62990;SDS011;49084;48.204;16.202;2022-12-28T12:34:23;14.48;;;8.98;;
62990;SDS011;49084;48.204;16.202;2022-12-28T12:45:51;13.50;;;8.68;;
62990;SDS011;49084;48.204;16.202;2022-12-28T12:48:53;16.77;;;7.85;;
62990;SDS011;49084;48.204;16.202;2022-12-28T12:51:32;13.95;;;7.18;;
62990;SDS011;49084;48.204;16.202;2022-12-28T12:54:29;12.43;;;6.90;;
62990;SDS011;49084;48.204;16.202;2022-12-28T12:57:26;15.57;;;7.18;;
62990;SDS011;49084;48.204;16.202;2022-12-28T13:00:10;16.05;;;6.95;;
62990;SDS011;49084;48.204;16.202;2022-12-28T13:05:40;11.68;;;7.30;;
62990;SDS011;49084;48.204;16.202;2022-12-28T13:08:19;15.40;;;7.60;;
62990;SDS011;49084;48.204;16.202;2022-12-28T13:10:47;17.30;;;10.80;;
62990;SDS011;49084;48.204;16.202;2022-12-28T13:13:16;15.07;;;7.70;;
62990;SDS011;49084;48.204;16.202;2022-12-28T13:15:48;12.23;;;7.38;;
62990;SDS011;49084;48.204;16.202;2022-12-28T13:18:15;10.68;;;6.93;;
62990;SDS011;49084;48.204;16.202;2022-12-28T13:20:53;14.13;;;6.97;;
62990;SDS011;49084;48.204;16.202;2022-12-28T13:23:20;14.48;;;7.32;;
62990;SDS011;49084;48.204;16.202;2022-12-28T13:25:48;20.48;;;8.35;;
62990;SDS011;49084;48.204;16.202;2022-12-28T13:28:20;15.70;;;7.55;;
62990;SDS011;49084;48.204;16.202;2022-12-28T13:30:59;14.73;;;7.25;;
62990;SDS011;49084;48.204;16.202;2022-12-28T13:33:30;15.73;;;7.95;;
62990;SDS011;49084;48.204;16.202;2022-12-28T13:38:34;17.02;;;7.05;;
62990;SDS011;49084;48.204;16.202;2022-12-28T13:41:00;10.23;;;6.97;;
62990;SDS011;49084;48.204;16.202;2022-12-28T13:46:20;10.68;;;6.70;;
62990;SDS011;49084;48.204;16.202;2022-12-28T13:48:48;11.30;;;6.40;;
62990;SDS011;49084;48.204;16.202;2022-12-28T13:51:16;11.93;;;6.07;;
62990;SDS011;49084;48.204;16.202;2022-12-28T13:53:44;15.82;;;6.50;;
62990;SDS011;49084;48.204;16.202;2022-12-28T13:56:15;15.88;;;6.70;;
62990;SDS011;49084;48.204;16.202;2022-12-28T13:58:51;17.00;;;7.00;;
62990;SDS011;49084;48.204;16.202;2022-12-28T14:01:23;13.68;;;6.50;;
62990;SDS011;49084;48.204;16.202;2022-12-28T14:03:53;13.40;;;7.38;;
62990;SDS011;49084;48.204;16.202;2022-12-28T14:06:24;17.92;;;8.05;;
62990;SDS011;49084;48.204;16.202;2022-12-28T14:08:50;17.02;;;7.97;;
62990;SDS011;49084;48.204;16.202;2022-12-28T14:11:17;13.20;;;7.22;;
62990;SDS011;49084;48.204;16.202;2022-12-28T14:13:43;17.80;;;8.23;;
62990;SDS011;49084;48.204;16.202;2022-12-28T14:16:09;19.02;;;8.18;;
62990;SDS011;49084;48.204;16.202;2022-12-28T14:18:35;17.83;;;8.95;;
62990;SDS011;49084;48.204;16.202;2022-12-28T14:21:01;29.42;;;9.57;;
62990;SDS011;49084;48.204;16.202;2022-12-28T14:23:32;20.73;;;9.18;;
62990;SDS011;49084;48.204;16.202;2022-12-28T14:26:06;16.38;;;9.38;;
62990;SDS011;49084;48.204;16.202;2022-12-28T14:28:44;19.05;;;10.68;;
62990;SDS011;49084;48.204;16.202;2022-12-28T14:31:20;18.30;;;9.63;;
62990;SDS011;49084;48.204;16.202;2022-12-28T14:36:27;25.38;;;9.45;;
62990;SDS011;49084;48.204;16.202;2022-12-28T14:38:59;16.33;;;9.40;;
62990;SDS011;49084;48.204;16.202;2022-12-28T14:41:37;20.38;;;9.18;;
62990;SDS011;49084;48.204;16.202;2022-12-28T14:44:05;17.75;;;9.35;;
62990;SDS011;49084;48.204;16.202;2022-12-28T14:46:39;14.02;;;8.93;;
62990;SDS011;49084;48.204;16.202;2022-12-28T14:54:33;17.30;;;9.70;;
62990;SDS011;49084;48.204;16.202;2022-12-28T15:00:00;16.08;;;9.48;;
62990;SDS011;49084;48.204;16.202;2022-12-28T15:02:45;18.40;;;8.93;;
62990;SDS011;49084;48.204;16.202;2022-12-28T15:08:16;21.10;;;9.57;;
62990;SDS011;49084;48.204;16.202;2022-12-28T15:10:51;12.93;;;8.52;;
62990;SDS011;49084;48.204;16.202;2022-12-28T15:13:19;19.20;;;11.10;;
62990;SDS011;49084;48.204;16.202;2022-12-28T15:15:54;29.38;;;12.25;;
62990;SDS011;49084;48.204;16.202;2022-12-28T15:18:25;16.75;;;10.63;;
62990;SDS011;49084;48.204;16.202;2022-12-28T15:20:52;20.40;;;11.52;;
62990;SDS011;49084;48.204;16.202;2022-12-28T15:23:18;22.15;;;10.80;;
62990;SDS011;49084;48.204;16.202;2022-12-28T15:25:44;23.52;;;10.40;;
62990;SDS011;49084;48.204;16.202;2022-12-28T15:28:10;16.90;;;9.75;;
62990;SDS011;49084;48.204;16.202;2022-12-28T15:30:40;18.15;;;9.45;;
62990;SDS011;49084;48.204;16.202;2022-12-28T15:33:06;15.10;;;9.05;;
62990;SDS011;49084;48.204;16.202;2022-12-28T15:35:32;19.17;;;9.80;;
62990;SDS011;49084;48.204;16.202;2022-12-28T15:37:58;18.08;;;9.52;;
62990;SDS011;49084;48.204;16.202;2022-12-28T15:40:24;20.52;;;9.30;;
62990;SDS011;49084;48.204;16.202;2022-12-28T15:42:50;18.48;;;8.93;;
62990;SDS011;49084;48.204;16.202;2022-12-28T15:45:15;23.27;;;9.88;;
62990;SDS011;49084;48.204;16.202;2022-12-28T15:47:41;19.63;;;9.45;;
62990;SDS011;49084;48.204;16.202;2022-12-28T15:50:07;19.27;;;10.85;;
62990;SDS011;49084;48.204;16.202;2022-12-28T15:52:34;18.13;;;10.32;;
62990;SDS011;49084;48.204;16.202;2022-12-28T15:54:59;18.98;;;9.65;;
62990;SDS011;49084;48.204;16.202;2022-12-28T15:57:25;17.52;;;9.50;;
62990;SDS011;49084;48.204;16.202;2022-12-28T15:59:52;17.40;;;9.65;;
62990;SDS011;49084;48.204;16.202;2022-12-28T16:02:18;20.15;;;9.43;;
62990;SDS011;49084;48.204;16.202;2022-12-28T16:04:44;24.58;;;11.20;;
62990;SDS011;49084;48.204;16.202;2022-12-28T16:07:10;25.27;;;10.77;;
62990;SDS011;49084;48.204;16.202;2022-12-28T16:09:36;18.35;;;9.77;;
62990;SDS011;49084;48.204;16.202;2022-12-28T16:12:01;20.63;;;9.82;;
62990;SDS011;49084;48.204;16.202;2022-12-28T16:14:27;18.98;;;9.90;;
62990;SDS011;49084;48.204;16.202;2022-12-28T16:16:53;24.27;;;10.50;;
62990;SDS011;49084;48.204;16.202;2022-12-28T16:19:19;21.52;;;11.23;;
62990;SDS011;49084;48.204;16.202;2022-12-28T16:21:44;20.15;;;12.00;;
62990;SDS011;49084;48.204;16.202;2022-12-28T16:24:12;22.92;;;10.38;;
62990;SDS011;49084;48.204;16.202;2022-12-28T16:26:38;16.13;;;9.38;;
62990;SDS011;49084;48.204;16.202;2022-12-28T16:29:04;20.48;;;10.50;;
62990;SDS011;49084;48.204;16.202;2022-12-28T16:31:33;22.40;;;12.32;;
62990;SDS011;49084;48.204;16.202;2022-12-28T16:34:04;22.38;;;12.98;;